sensor_id;sensor_type;location;lat;lon;timestamp;pressure;altitude;pressure_sealevel;temperature;humidity
11349;BME280;5729;43.570;27.826;2023-02-11T00:00:08;101021.84;;;-4.63;100.00
11349;BME280;5729;43.570;27.826;2023-02-11T00:02:34;101015.44;;;-4.80;100.00
11349;BME280;5729;43.570;27.826;2023-02-11T00:05:00;101010.78;;;-4.78;100.00
11349;BME280;5729;43.570;27.826;2023-02-11T00:07:30;101019.22;;;-4.63;100.00
11349;BME280;5729;43.570;27.826;2023-02-11T00:09:56;101023.44;;;-4.55;100.00
11349;BME280;5729;43.570;27.826;2023-02-11T00:12:22;101028.50;;;-4.54;100.00
11349;BME280;5729;43.570;27.826;2023-02-11T00:14:47;101018.78;;;-4.53;100.00
11349;BME280;5729;43.570;27.826;2023-02-11T00:17:13;101004.22;;;-4.62;100.00
11349;BME280;5729;43.570;27.826;2023-02-11T00:19:39;101012.69;;;-4.54;100.00
11349;BME280;5729;43.570;27.826;2023-02-11T00:22:04;101016.34;;;-4.55;100.00
11349;BME280;5729;43.570;27.826;2023-02-11T00:24:30;101017.38;;;-4.56;100.00
11349;BME280;5729;43.570;27.826;2023-02-11T00:26:56;101013.31;;;-4.58;100.00
11349;BME280;5729;43.570;27.826;2023-02-11T00:29:21;100997.72;;;-4.60;100.00
11349;BME280;5729;43.570;27.826;2023-02-11T00:31:46;101000.56;;;-4.55;100.00
11349;BME280;5729;43.570;27.826;2023-02-11T00:34:12;100999.53;;;-4.54;100.00
11349;BME280;5729;43.570;27.826;2023-02-11T00:36:37;100984.94;;;-4.50;100.00
11349;BME280;5729;43.570;27.826;2023-02-11T00:39:03;100985.31;;;-4.46;100.00
11349;BME280;5729;43.570;27.826;2023-02-11T00:41:29;100983.91;;;-4.42;100.00
11349;BME280;5729;43.570;27.826;2023-02-11T00:43:54;100979.66;;;-4.43;100.00
11349;BME280;5729;43.570;27.826;2023-02-11T00:46:20;100982.28;;;-4.43;100.00
11349;BME280;5729;43.570;27.826;2023-02-11T00:48:45;100983.31;;;-4.51;100.00
11349;BME280;5729;43.570;27.826;2023-02-11T00:51:11;100981.50;;;-4.50;100.00
11349;BME280;5729;43.570;27.826;2023-02-11T00:53:37;100965.34;;;-4.54;100.00
11349;BME280;5729;43.570;27.826;2023-02-11T00:56:02;100984.69;;;-4.42;100.00
11349;BME280;5729;43.570;27.826;2023-02-11T00:58:28;100988.75;;;-4.46;100.00
11349;BME280;5729;43.570;27.826;2023-02-11T01:00:54;100980.25;;;-4.48;100.00
11349;BME280;5729;43.570;27.826;2023-02-11T01:03:20;100972.16;;;-4.46;100.00
11349;BME280;5729;43.570;27.826;2023-02-11T01:05:45;100971.97;;;-4.45;100.00
11349;BME280;5729;43.570;27.826;2023-02-11T01:08:11;100971.81;;;-4.56;100.00
11349;BME280;5729;43.570;27.826;2023-02-11T01:10:36;100985.38;;;-4.59;100.00
11349;BME280;5729;43.570;27.826;2023-02-11T01:13:02;100994.50;;;-4.62;100.00
11349;BME280;5729;43.570;27.826;2023-02-11T01:15:28;100981.13;;;-4.60;100.00
11349;BME280;5729;43.570;27.826;2023-02-11T01:17:54;100971.88;;;-4.63;100.00
11349;BME280;5729;43.570;27.826;2023-02-11T01:20:22;100979.31;;;-4.60;100.00
11349;BME280;5729;43.570;27.826;2023-02-11T01:22:47;100966.34;;;-4.55;100.00
11349;BME280;5729;43.570;27.826;2023-02-11T01:25:13;100967.78;;;-4.59;100.00
11349;BME280;5729;43.570;27.826;2023-02-11T01:27:39;100970.19;;;-4.57;100.00
11349;BME280;5729;43.570;27.826;2023-02-11T01:30:06;100962.69;;;-4.54;100.00
11349;BME280;5729;43.570;27.826;2023-02-11T01:32:32;100956.41;;;-4.53;100.00
11349;BME280;5729;43.570;27.826;2023-02-11T01:34:58;100954.00;;;-4.54;100.00
11349;BME280;5729;43.570;27.826;2023-02-11T01:37:24;100964.06;;;-4.45;100.00
11349;BME280;5729;43.570;27.826;2023-02-11T01:39:49;100961.03;;;-4.48;100.00
11349;BME280;5729;43.570;27.826;2023-02-11T01:42:20;100961.00;;;-4.42;100.00
11349;BME280;5729;43.570;27.826;2023-02-11T01:44:48;100957.09;;;-4.32;100.00
11349;BME280;5729;43.570;27.826;2023-02-11T01:47:13;100964.81;;;-4.38;100.00
11349;BME280;5729;43.570;27.826;2023-02-11T01:49:43;100941.59;;;-4.47;100.00
11349;BME280;5729;43.570;27.826;2023-02-11T01:52:25;100963.38;;;-4.33;100.00
11349;BME280;5729;43.570;27.826;2023-02-11T01:54:53;100957.53;;;-4.35;100.00
11349;BME280;5729;43.570;27.826;2023-02-11T01:57:41;100955.97;;;-4.50;100.00
11349;BME280;5729;43.570;27.826;2023-02-11T02:08:16;100957.72;;;-4.37;100.00
11349;BME280;5729;43.570;27.826;2023-02-11T02:10:46;100953.94;;;-4.41;100.00
11349;BME280;5729;43.570;27.826;2023-02-11T02:13:12;100954.50;;;-4.39;100.00
11349;BME280;5729;43.570;27.826;2023-02-11T02:15:47;100957.81;;;-4.50;100.00
11349;BME280;5729;43.570;27.826;2023-02-11T02:37:40;100964.13;;;-4.58;100.00
11349;BME280;5729;43.570;27.826;2023-02-11T02:40:14;100968.50;;;-4.45;100.00
11349;BME280;5729;43.570;27.826;2023-02-11T02:42:42;100965.56;;;-4.62;100.00
11349;BME280;5729;43.570;27.826;2023-02-11T02:45:10;100963.97;;;-4.63;100.00
11349;BME280;5729;43.570;27.826;2023-02-11T02:47:36;100958.53;;;-4.68;100.00
11349;BME280;5729;43.570;27.826;2023-02-11T02:50:03;100964.53;;;-4.61;100.00
11349;BME280;5729;43.570;27.826;2023-02-11T02:55:43;100961.75;;;-4.66;100.00
11349;BME280;5729;43.570;27.826;2023-02-11T03:01:56;100958.41;;;-4.86;100.00
11349;BME280;5729;43.570;27.826;2023-02-11T03:04:04;100960.25;;;-4.93;100.00
11349;BME280;5729;43.570;27.826;2023-02-11T03:06:48;100958.78;;;-4.76;100.00
11349;BME280;5729;43.570;27.826;2023-02-11T03:09:45;100955.34;;;-4.83;100.00
11349;BME280;5729;43.570;27.826;2023-02-11T03:12:13;100950.09;;;-4.83;100.00
11349;BME280;5729;43.570;27.826;2023-02-11T03:14:40;100941.13;;;-4.69;100.00
11349;BME280;5729;43.570;27.826;2023-02-11T03:17:07;100955.03;;;-4.62;100.00
11349;BME280;5729;43.570;27.826;2023-02-11T03:19:37;100955.81;;;-4.55;100.00
11349;BME280;5729;43.570;27.826;2023-02-11T03:22:16;100949.69;;;-4.49;100.00
11349;BME280;5729;43.570;27.826;2023-02-11T03:24:43;100943.41;;;-4.48;100.00
11349;BME280;5729;43.570;27.826;2023-02-11T03:27:19;100943.88;;;-4.57;100.00
11349;BME280;5729;43.570;27.826;2023-02-11T03:29:53;100941.47;;;-4.59;100.00
11349;BME280;5729;43.570;27.826;2023-02-11T03:32:24;100939.91;;;-4.66;100.00
11349;BME280;5729;43.570;27.826;2023-02-11T03:35:13;100934.66;;;-4.73;100.00
11349;BME280;5729;43.570;27.826;2023-02-11T03:37:44;100924.19;;;-4.80;100.00
11349;BME280;5729;43.570;27.826;2023-02-11T03:40:19;100936.47;;;-4.73;100.00
11349;BME280;5729;43.570;27.826;2023-02-11T03:42:51;100930.06;;;-4.84;100.00
11349;BME280;5729;43.570;27.826;2023-02-11T03:45:21;100928.09;;;-4.95;100.00
11349;BME280;5729;43.570;27.826;2023-02-11T03:47:51;100933.09;;;-4.81;100.00
11349;BME280;5729;43.570;27.826;2023-02-11T03:50:19;100927.16;;;-4.69;100.00
11349;BME280;5729;43.570;27.826;2023-02-11T03:52:47;100927.91;;;-4.62;100.00
11349;BME280;5729;43.570;27.826;2023-02-11T03:55:17;100933.84;;;-4.73;100.00
11349;BME280;5729;43.570;27.826;2023-02-11T03:57:43;100928.81;;;-4.75;100.00
11349;BME280;5729;43.570;27.826;2023-02-11T04:00:09;100923.31;;;-4.67;100.00
11349;BME280;5729;43.570;27.826;2023-02-11T04:02:36;100927.16;;;-4.69;100.00
11349;BME280;5729;43.570;27.826;2023-02-11T04:05:03;100919.72;;;-4.79;100.00
11349;BME280;5729;43.570;27.826;2023-02-11T04:07:28;100920.31;;;-4.77;100.00
11349;BME280;5729;43.570;27.826;2023-02-11T04:09:54;100924.78;;;-4.78;100.00
11349;BME280;5729;43.570;27.826;2023-02-11T04:12:19;100922.56;;;-4.81;100.00
11349;BME280;5729;43.570;27.826;2023-02-11T04:14:45;100916.50;;;-4.81;100.00
11349;BME280;5729;43.570;27.826;2023-02-11T04:17:11;100915.78;;;-5.01;100.00
11349;BME280;5729;43.570;27.826;2023-02-11T04:19:37;100919.59;;;-4.91;100.00
11349;BME280;5729;43.570;27.826;2023-02-11T04:22:02;100923.06;;;-4.97;100.00
11349;BME280;5729;43.570;27.826;2023-02-11T04:24:28;100923.81;;;-4.90;100.00
11349;BME280;5729;43.570;27.826;2023-02-11T04:26:54;100910.34;;;-5.06;100.00
11349;BME280;5729;43.570;27.826;2023-02-11T04:29:20;100921.81;;;-4.94;100.00
11349;BME280;5729;43.570;27.826;2023-02-11T04:31:45;100920.34;;;-4.84;100.00
11349;BME280;5729;43.570;27.826;2023-02-11T04:34:11;100917.09;;;-4.79;100.00
11349;BME280;5729;43.570;27.826;2023-02-11T04:36:36;100909.34;;;-4.67;100.00
11349;BME280;5729;43.570;27.826;2023-02-11T04:39:02;100918.44;;;-4.63;100.00
11349;BME280;5729;43.570;27.826;2023-02-11T04:41:28;100905.50;;;-4.65;100.00
11349;BME280;5729;43.570;27.826;2023-02-11T04:43:53;100913.97;;;-4.63;100.00
11349;BME280;5729;43.570;27.826;2023-02-11T04:46:18;100914.84;;;-4.76;100.00
11349;BME280;5729;43.570;27.826;2023-02-11T04:48:44;100919.13;;;-4.81;100.00
11349;BME280;5729;43.570;27.826;2023-02-11T04:51:10;100910.28;;;-4.93;100.00
11349;BME280;5729;43.570;27.826;2023-02-11T04:53:35;100910.69;;;-4.96;100.00
11349;BME280;5729;43.570;27.826;2023-02-11T04:56:01;100910.34;;;-5.06;100.00
11349;BME280;5729;43.570;27.826;2023-02-11T04:58:26;100911.13;;;-4.99;100.00
11349;BME280;5729;43.570;27.826;2023-02-11T05:00:52;100914.38;;;-4.97;100.00
11349;BME280;5729;43.570;27.826;2023-02-11T05:03:17;100911.28;;;-4.88;100.00
11349;BME280;5729;43.570;27.826;2023-02-11T05:05:43;100916.75;;;-4.96;100.00
11349;BME280;5729;43.570;27.826;2023-02-11T05:08:09;100905.63;;;-4.91;100.00
11349;BME280;5729;43.570;27.826;2023-02-11T05:10:35;100906.88;;;-5.00;100.00
11349;BME280;5729;43.570;27.826;2023-02-11T05:13:00;100906.50;;;-5.04;100.00
11349;BME280;5729;43.570;27.826;2023-02-11T05:15:26;100916.47;;;-5.26;100.00
11349;BME280;5729;43.570;27.826;2023-02-11T05:17:52;100903.91;;;-5.17;100.00
11349;BME280;5729;43.570;27.826;2023-02-11T05:20:19;100903.91;;;-5.17;100.00
11349;BME280;5729;43.570;27.826;2023-02-11T05:22:45;100905.88;;;-5.06;100.00
11349;BME280;5729;43.570;27.826;2023-02-11T05:25:10;100901.69;;;-5.14;100.00
11349;BME280;5729;43.570;27.826;2023-02-11T05:27:35;100902.53;;;-5.20;100.00
11349;BME280;5729;43.570;27.826;2023-02-11T05:30:01;100899.25;;;-5.08;100.00
11349;BME280;5729;43.570;27.826;2023-02-11T05:32:26;100898.09;;;-5.26;100.00
11349;BME280;5729;43.570;27.826;2023-02-11T05:34:52;100904.66;;;-5.03;100.00
11349;BME280;5729;43.570;27.826;2023-02-11T05:37:17;100902.84;;;-5.03;100.00
11349;BME280;5729;43.570;27.826;2023-02-11T05:39:43;100903.47;;;-5.07;100.00
11349;BME280;5729;43.570;27.826;2023-02-11T05:42:08;100901.22;;;-4.97;100.00
11349;BME280;5729;43.570;27.826;2023-02-11T05:44:34;100898.16;;;-4.94;100.00
11349;BME280;5729;43.570;27.826;2023-02-11T05:46:59;100906.03;;;-4.88;100.00
11349;BME280;5729;43.570;27.826;2023-02-11T05:49:24;100901.97;;;-4.90;100.00
11349;BME280;5729;43.570;27.826;2023-02-11T05:51:50;100902.72;;;-4.77;100.00
11349;BME280;5729;43.570;27.826;2023-02-11T05:54:15;100900.50;;;-4.80;100.00
11349;BME280;5729;43.570;27.826;2023-02-11T05:56:41;100904.53;;;-4.77;100.00
11349;BME280;5729;43.570;27.826;2023-02-11T05:59:07;100911.56;;;-4.71;100.00
11349;BME280;5729;43.570;27.826;2023-02-11T06:01:32;100910.63;;;-4.83;100.00
11349;BME280;5729;43.570;27.826;2023-02-11T06:03:58;100912.09;;;-4.94;100.00
11349;BME280;5729;43.570;27.826;2023-02-11T06:06:24;100910.28;;;-4.93;100.00
11349;BME280;5729;43.570;27.826;2023-02-11T06:08:49;100911.22;;;-4.81;100.00
11349;BME280;5729;43.570;27.826;2023-02-11T06:11:15;100914.66;;;-4.81;100.00
11349;BME280;5729;43.570;27.826;2023-02-11T06:13:41;100922.16;;;-4.84;100.00
11349;BME280;5729;43.570;27.826;2023-02-11T06:16:06;100917.84;;;-4.65;100.00
11349;BME280;5729;43.570;27.826;2023-02-11T06:18:32;100920.81;;;-4.62;100.00
11349;BME280;5729;43.570;27.826;2023-02-11T06:21:00;100917.09;;;-4.48;100.00
11349;BME280;5729;43.570;27.826;2023-02-11T06:23:26;100896.47;;;-4.51;100.00
11349;BME280;5729;43.570;27.826;2023-02-11T06:25:51;100911.75;;;-4.34;100.00
11349;BME280;5729;43.570;27.826;2023-02-11T06:28:17;100920.84;;;-4.30;100.00
11349;BME280;5729;43.570;27.826;2023-02-11T06:30:43;100916.34;;;-4.23;100.00
11349;BME280;5729;43.570;27.826;2023-02-11T06:33:08;100915.38;;;-4.29;100.00
11349;BME280;5729;43.570;27.826;2023-02-11T06:35:34;100914.72;;;-4.24;100.00
11349;BME280;5729;43.570;27.826;2023-02-11T06:38:00;100914.03;;;-4.13;100.00
11349;BME280;5729;43.570;27.826;2023-02-11T06:40:26;100911.59;;;-4.15;100.00
11349;BME280;5729;43.570;27.826;2023-02-11T06:42:51;100907.09;;;-4.08;100.00
11349;BME280;5729;43.570;27.826;2023-02-11T06:45:17;100908.94;;;-4.08;100.00
11349;BME280;5729;43.570;27.826;2023-02-11T06:47:43;100924.97;;;-4.16;100.00
11349;BME280;5729;43.570;27.826;2023-02-11T06:50:12;100914.94;;;-4.01;100.00
11349;BME280;5729;43.570;27.826;2023-02-11T06:52:37;100926.66;;;-3.97;100.00
11349;BME280;5729;43.570;27.826;2023-02-11T06:55:03;100923.53;;;-3.87;100.00
11349;BME280;5729;43.570;27.826;2023-02-11T06:57:29;100925.75;;;-3.84;100.00
11349;BME280;5729;43.570;27.826;2023-02-11T06:59:55;100915.72;;;-3.76;100.00
11349;BME280;5729;43.570;27.826;2023-02-11T07:02:20;100924.97;;;-3.67;100.00
11349;BME280;5729;43.570;27.826;2023-02-11T07:04:46;100919.81;;;-3.80;100.00
11349;BME280;5729;43.570;27.826;2023-02-11T07:07:11;100929.03;;;-3.71;100.00
11349;BME280;5729;43.570;27.826;2023-02-11T07:09:37;100923.47;;;-3.81;100.00
11349;BME280;5729;43.570;27.826;2023-02-11T07:12:02;100896.97;;;-3.86;100.00
11349;BME280;5729;43.570;27.826;2023-02-11T07:14:28;100915.31;;;-3.54;100.00
11349;BME280;5729;43.570;27.826;2023-02-11T07:16:53;100919.13;;;-3.50;100.00
11349;BME280;5729;43.570;27.826;2023-02-11T07:19:19;100923.81;;;-3.34;100.00
11349;BME280;5729;43.570;27.826;2023-02-11T07:21:44;100911.06;;;-3.55;100.00
11349;BME280;5729;43.570;27.826;2023-02-11T07:24:10;100910.78;;;-3.29;100.00
11349;BME280;5729;43.570;27.826;2023-02-11T07:26:36;100900.38;;;-3.42;100.00
11349;BME280;5729;43.570;27.826;2023-02-11T07:29:02;100910.69;;;-3.22;100.00
11349;BME280;5729;43.570;27.826;2023-02-11T07:31:28;100908.34;;;-3.12;100.00
11349;BME280;5729;43.570;27.826;2023-02-11T07:33:56;100905.56;;;-3.17;100.00
11349;BME280;5729;43.570;27.826;2023-02-11T07:36:23;100898.00;;;-2.96;100.00
11349;BME280;5729;43.570;27.826;2023-02-11T07:38:49;100902.97;;;-2.87;100.00
11349;BME280;5729;43.570;27.826;2023-02-11T07:41:17;100892.84;;;-2.90;100.00
11349;BME280;5729;43.570;27.826;2023-02-11T07:43:43;100895.53;;;-2.79;100.00
11349;BME280;5729;43.570;27.826;2023-02-11T07:46:14;100895.91;;;-2.75;100.00
11349;BME280;5729;43.570;27.826;2023-02-11T07:48:40;100896.84;;;-2.58;100.00
11349;BME280;5729;43.570;27.826;2023-02-11T07:51:24;100891.28;;;-2.50;100.00
11349;BME280;5729;43.570;27.826;2023-02-11T07:53:51;100891.84;;;-2.36;100.00
11349;BME280;5729;43.570;27.826;2023-02-11T07:56:18;100897.84;;;-2.41;100.00
11349;BME280;5729;43.570;27.826;2023-02-11T07:58:44;100882.13;;;-2.24;100.00
11349;BME280;5729;43.570;27.826;2023-02-11T08:01:14;100879.41;;;-2.06;100.00
11349;BME280;5729;43.570;27.826;2023-02-11T08:03:40;100868.25;;;-1.85;100.00
11349;BME280;5729;43.570;27.826;2023-02-11T08:06:09;100870.19;;;0.07;100.00
11349;BME280;5729;43.570;27.826;2023-02-11T08:08:35;100869.94;;;3.48;100.00
11349;BME280;5729;43.570;27.826;2023-02-11T08:11:24;100869.03;;;7.24;77.42
11349;BME280;5729;43.570;27.826;2023-02-11T08:13:50;100855.03;;;9.96;48.36
11349;BME280;5729;43.570;27.826;2023-02-11T08:16:36;100853.38;;;12.29;41.43
11349;BME280;5729;43.570;27.826;2023-02-11T08:19:06;100849.13;;;13.82;36.58
11349;BME280;5729;43.570;27.826;2023-02-11T08:21:32;100860.09;;;14.56;33.66
11349;BME280;5729;43.570;27.826;2023-02-11T08:23:57;100844.63;;;15.20;32.12
11349;BME280;5729;43.570;27.826;2023-02-11T08:26:26;100849.72;;;15.10;31.79
11349;BME280;5729;43.570;27.826;2023-02-11T08:28:54;100848.09;;;16.36;29.65
11349;BME280;5729;43.570;27.826;2023-02-11T08:31:26;100849.75;;;17.07;29.58
11349;BME280;5729;43.570;27.826;2023-02-11T08:33:52;100843.44;;;17.80;28.21
11349;BME280;5729;43.570;27.826;2023-02-11T08:36:21;100839.13;;;19.00;26.87
11349;BME280;5729;43.570;27.826;2023-02-11T08:38:47;100846.34;;;18.59;26.07
11349;BME280;5729;43.570;27.826;2023-02-11T08:41:13;100851.91;;;19.22;25.47
11349;BME280;5729;43.570;27.826;2023-02-11T08:43:39;100832.22;;;20.21;25.15
11349;BME280;5729;43.570;27.826;2023-02-11T08:46:07;100852.13;;;19.40;24.19
11349;BME280;5729;43.570;27.826;2023-02-11T08:48:32;100825.47;;;19.64;25.08
11349;BME280;5729;43.570;27.826;2023-02-11T08:50:58;100831.25;;;19.96;23.90
11349;BME280;5729;43.570;27.826;2023-02-11T08:53:24;100830.72;;;19.83;24.38
11349;BME280;5729;43.570;27.826;2023-02-11T08:55:54;100828.06;;;20.96;23.32
11349;BME280;5729;43.570;27.826;2023-02-11T08:58:20;100817.69;;;20.61;24.16
11349;BME280;5729;43.570;27.826;2023-02-11T09:00:46;100820.34;;;20.03;23.62
11349;BME280;5729;43.570;27.826;2023-02-11T09:03:13;100815.09;;;20.82;23.65
11349;BME280;5729;43.570;27.826;2023-02-11T09:05:43;100811.25;;;20.97;22.97
11349;BME280;5729;43.570;27.826;2023-02-11T09:08:08;100816.56;;;21.52;22.90
11349;BME280;5729;43.570;27.826;2023-02-11T09:10:34;100806.72;;;20.54;22.83
11349;BME280;5729;43.570;27.826;2023-02-11T09:12:59;100817.88;;;19.20;24.70
11349;BME280;5729;43.570;27.826;2023-02-11T09:15:25;100810.31;;;20.17;24.03
11349;BME280;5729;43.570;27.826;2023-02-11T09:17:50;100812.31;;;20.75;24.45
11349;BME280;5729;43.570;27.826;2023-02-11T09:20:16;100803.47;;;20.38;24.20
11349;BME280;5729;43.570;27.826;2023-02-11T09:22:42;100799.00;;;22.14;22.95
11349;BME280;5729;43.570;27.826;2023-02-11T09:25:07;100798.16;;;22.63;22.31
11349;BME280;5729;43.570;27.826;2023-02-11T09:27:32;100791.25;;;20.93;24.07
11349;BME280;5729;43.570;27.826;2023-02-11T09:29:58;100788.38;;;21.84;22.81
11349;BME280;5729;43.570;27.826;2023-02-11T09:32:23;100789.47;;;21.29;22.98
11349;BME280;5729;43.570;27.826;2023-02-11T09:34:49;100783.25;;;21.43;22.93
11349;BME280;5729;43.570;27.826;2023-02-11T09:37:14;100779.63;;;20.42;23.27
11349;BME280;5729;43.570;27.826;2023-02-11T09:39:40;100789.69;;;20.30;24.41
11349;BME280;5729;43.570;27.826;2023-02-11T09:44:37;100768.50;;;19.02;25.17
11349;BME280;5729;43.570;27.826;2023-02-11T09:47:06;100769.97;;;18.66;24.68
11349;BME280;5729;43.570;27.826;2023-02-11T09:49:45;100763.66;;;20.58;24.37
11349;BME280;5729;43.570;27.826;2023-02-11T09:54:55;100758.94;;;21.56;22.99
11349;BME280;5729;43.570;27.826;2023-02-11T09:57:25;100751.66;;;20.84;23.84
11349;BME280;5729;43.570;27.826;2023-02-11T09:59:55;100738.75;;;20.84;23.28
11349;BME280;5729;43.570;27.826;2023-02-11T10:02:31;100730.44;;;20.63;23.40
11349;BME280;5729;43.570;27.826;2023-02-11T10:16:36;100722.38;;;17.88;26.67
11349;BME280;5729;43.570;27.826;2023-02-11T10:21:14;100717.34;;;16.64;28.81
11349;BME280;5729;43.570;27.826;2023-02-11T10:23:45;100712.44;;;17.99;27.81
11349;BME280;5729;43.570;27.826;2023-02-11T10:26:17;100714.25;;;18.44;27.84
11349;BME280;5729;43.570;27.826;2023-02-11T10:28:45;100708.66;;;18.07;26.94
11349;BME280;5729;43.570;27.826;2023-02-11T10:31:19;100710.16;;;16.94;28.53
11349;BME280;5729;43.570;27.826;2023-02-11T10:36:34;100696.88;;;17.77;27.83
11349;BME280;5729;43.570;27.826;2023-02-11T10:39:08;100691.84;;;17.33;28.24
11349;BME280;5729;43.570;27.826;2023-02-11T10:41:40;100692.47;;;17.04;27.46
11349;BME280;5729;43.570;27.826;2023-02-11T10:44:07;100685.03;;;15.61;30.13
11349;BME280;5729;43.570;27.826;2023-02-11T10:46:35;100674.66;;;17.10;27.60
11349;BME280;5729;43.570;27.826;2023-02-11T10:49:04;100666.91;;;18.03;28.25
11349;BME280;5729;43.570;27.826;2023-02-11T10:51:31;100660.38;;;17.62;28.55
11349;BME280;5729;43.570;27.826;2023-02-11T10:56:39;100652.16;;;17.82;27.56
11349;BME280;5729;43.570;27.826;2023-02-11T10:59:14;100653.34;;;17.84;28.15
11349;BME280;5729;43.570;27.826;2023-02-11T11:01:51;100655.25;;;17.57;28.74
11349;BME280;5729;43.570;27.826;2023-02-11T11:04:43;100648.25;;;16.91;28.91
11349;BME280;5729;43.570;27.826;2023-02-11T11:07:11;100633.56;;;18.17;28.94
11349;BME280;5729;43.570;27.826;2023-02-11T11:12:45;100634.59;;;17.79;27.64
11349;BME280;5729;43.570;27.826;2023-02-11T11:15:28;100632.72;;;16.92;28.82
11349;BME280;5729;43.570;27.826;2023-02-11T11:18:16;100626.31;;;17.26;29.56
11349;BME280;5729;43.570;27.826;2023-02-11T11:21:10;100632.91;;;16.45;29.45
11349;BME280;5729;43.570;27.826;2023-02-11T11:23:37;100629.25;;;16.37;30.22
11349;BME280;5729;43.570;27.826;2023-02-11T11:28:31;100615.84;;;16.86;29.16
11349;BME280;5729;43.570;27.826;2023-02-11T11:30:58;100612.75;;;17.79;28.88
11349;BME280;5729;43.570;27.826;2023-02-11T11:33:27;100606.13;;;17.08;28.42
11349;BME280;5729;43.570;27.826;2023-02-11T11:36:19;100608.16;;;17.83;28.53
11349;BME280;5729;43.570;27.826;2023-02-11T11:38:52;100602.78;;;18.17;28.44
11349;BME280;5729;43.570;27.826;2023-02-11T11:41:26;100587.13;;;18.13;29.72
11349;BME280;5729;43.570;27.826;2023-02-11T11:46:34;100580.44;;;16.63;29.22
11349;BME280;5729;43.570;27.826;2023-02-11T11:49:11;100583.78;;;17.45;28.24
11349;BME280;5729;43.570;27.826;2023-02-11T11:51:38;100577.75;;;17.85;27.73
11349;BME280;5729;43.570;27.826;2023-02-11T11:54:11;100578.69;;;17.43;29.31
11349;BME280;5729;43.570;27.826;2023-02-11T11:57:01;100558.59;;;17.05;28.96
11349;BME280;5729;43.570;27.826;2023-02-11T11:59:29;100567.25;;;16.46;29.57
11349;BME280;5729;43.570;27.826;2023-02-11T12:02:00;100563.03;;;16.68;29.32
11349;BME280;5729;43.570;27.826;2023-02-11T12:07:10;100563.75;;;16.46;29.83
11349;BME280;5729;43.570;27.826;2023-02-11T12:14:50;100542.47;;;14.80;30.94
11349;BME280;5729;43.570;27.826;2023-02-11T12:17:39;100549.38;;;14.62;32.37
11349;BME280;5729;43.570;27.826;2023-02-11T12:20:41;100539.16;;;15.18;30.91
11349;BME280;5729;43.570;27.826;2023-02-11T12:23:17;100533.78;;;15.53;31.40
11349;BME280;5729;43.570;27.826;2023-02-11T12:32:00;100532.31;;;14.05;32.35
11349;BME280;5729;43.570;27.826;2023-02-11T12:47:53;100517.41;;;13.35;34.46
11349;BME280;5729;43.570;27.826;2023-02-11T12:55:37;100507.06;;;13.77;32.69
11349;BME280;5729;43.570;27.826;2023-02-11T12:58:11;100509.75;;;13.25;33.57
11349;BME280;5729;43.570;27.826;2023-02-11T13:01:08;100489.88;;;12.84;33.48
11349;BME280;5729;43.570;27.826;2023-02-11T13:03:43;100503.97;;;12.12;33.60
11349;BME280;5729;43.570;27.826;2023-02-11T13:06:14;100496.00;;;11.23;35.54
11349;BME280;5729;43.570;27.826;2023-02-11T13:08:48;100500.75;;;12.18;35.61
11349;BME280;5729;43.570;27.826;2023-02-11T13:14:42;100489.25;;;11.09;36.16
11349;BME280;5729;43.570;27.826;2023-02-11T13:16:49;100502.81;;;12.00;36.28
11349;BME280;5729;43.570;27.826;2023-02-11T13:19:21;100492.03;;;11.71;35.26
11349;BME280;5729;43.570;27.826;2023-02-11T13:22:21;100494.06;;;11.53;35.84
11349;BME280;5729;43.570;27.826;2023-02-11T13:30:31;100496.56;;;10.70;37.41
11349;BME280;5729;43.570;27.826;2023-02-11T13:37:54;100490.88;;;9.42;39.28
11349;BME280;5729;43.570;27.826;2023-02-11T13:40:23;100476.38;;;9.04;40.45
11349;BME280;5729;43.570;27.826;2023-02-11T13:42:57;100489.78;;;8.56;41.93
11349;BME280;5729;43.570;27.826;2023-02-11T13:45:33;100476.56;;;8.37;42.81
11349;BME280;5729;43.570;27.826;2023-02-11T13:48:02;100478.34;;;7.83;44.35
11349;BME280;5729;43.570;27.826;2023-02-11T13:50:33;100480.25;;;7.47;45.24
11349;BME280;5729;43.570;27.826;2023-02-11T13:53:02;100474.84;;;7.60;46.01
11349;BME280;5729;43.570;27.826;2023-02-11T13:55:30;100467.63;;;7.47;44.18
11349;BME280;5729;43.570;27.826;2023-02-11T14:11:50;100446.63;;;7.13;47.49
11349;BME280;5729;43.570;27.826;2023-02-11T14:14:33;100453.19;;;6.80;48.80
11349;BME280;5729;43.570;27.826;2023-02-11T14:19:46;100449.31;;;6.72;50.71
11349;BME280;5729;43.570;27.826;2023-02-11T14:25:02;100435.59;;;6.46;53.42
11349;BME280;5729;43.570;27.826;2023-02-11T14:27:29;100436.00;;;6.53;54.55
11349;BME280;5729;43.570;27.826;2023-02-11T14:30:10;100433.97;;;6.18;56.32
11349;BME280;5729;43.570;27.826;2023-02-11T14:38:43;100430.38;;;5.90;58.36
11349;BME280;5729;43.570;27.826;2023-02-11T14:43:55;100425.91;;;5.86;62.57
11349;BME280;5729;43.570;27.826;2023-02-11T14:46:23;100420.41;;;5.96;64.13
11349;BME280;5729;43.570;27.826;2023-02-11T14:48:53;100412.19;;;5.73;66.02
11349;BME280;5729;43.570;27.826;2023-02-11T14:51:23;100413.69;;;5.79;66.34
11349;BME280;5729;43.570;27.826;2023-02-11T14:53:53;100404.56;;;5.80;67.71
11349;BME280;5729;43.570;27.826;2023-02-11T14:56:27;100406.31;;;5.71;69.60
11349;BME280;5729;43.570;27.826;2023-02-11T14:58:56;100411.25;;;5.64;70.75
11349;BME280;5729;43.570;27.826;2023-02-11T15:01:29;100405.63;;;5.28;74.28
11349;BME280;5729;43.570;27.826;2023-02-11T15:04:00;100418.75;;;5.25;77.80
11349;BME280;5729;43.570;27.826;2023-02-11T15:06:36;100412.50;;;4.68;85.66
11349;BME280;5729;43.570;27.826;2023-02-11T15:11:33;100411.78;;;4.62;88.94
11349;BME280;5729;43.570;27.826;2023-02-11T15:14:25;100403.28;;;4.31;93.05
11349;BME280;5729;43.570;27.826;2023-02-11T15:16:53;100393.13;;;4.33;91.36